Other Surface Observations
Issued by NWS Great Falls, MT

Home | Current Version | Previous Version | Text Only | Print | Product List | Glossary On
Versions: 1 2 3 4 5 6 7 8 9 10 11 12 13 14 15 16 17 18 19 20 21 22 23 24 25 26 27 28 29 30 31 32 33 34 35 36 37 38 39 40 41 42 43 44 45 46 47 48 49 50
000
SXUS55 KTFX 252044
OSOTFX

AREA AWOS OBSERVATIONS
NATIONAL WEATHER SERVICE GREAT FALLS MT
0144 PM MST Sun Feb 25 2018

METAR K3U3 252043Z AUTO 19021G27KTKT M02/M10 A2970
METAR KS71 252043Z AUTO 24023G27KTKT 9SM 01/M05 A2950
METAR K38S 252043Z AUTO 14017G22KTKT 5SM M02/M08 A2970
METAR K88M 252043Z AUTO 10SM 01/M04 A2952
METAR K6S5 252044Z AUTO 14018G25KT 10SM 01/M06 A2973
METAR K1S3 252043Z AUTO 25013G20KTKT 02/M09 A2967
METAR KPWD 252043Z AUTO 23007KT 10SM M04/M11 A2955
METAR KPO1 252043Z AUTO 25005KT  10SM M07/M12 A2961



USA.gov is the U.S. government's official web portal to all federal, state and local government web resources and services.